createdAt,value
2019-03-12T00:00:24.632Z,25.25
2019-03-12T00:01:24.617Z,25.22
2019-03-12T00:02:24.613Z,25.31
2019-03-12T00:03:24.621Z,25.30
2019-03-12T00:04:24.592Z,25.34
2019-03-12T00:05:24.574Z,25.36
2019-03-12T00:06:24.569Z,25.44
2019-03-12T00:07:24.552Z,25.49
2019-03-12T00:08:24.554Z,25.59
2019-03-12T00:09:24.532Z,25.55
2019-03-12T00:10:24.522Z,25.61
2019-03-12T00:11:24.512Z,25.51
2019-03-12T00:12:24.504Z,25.62
2019-03-12T00:13:24.524Z,25.41
2019-03-12T00:14:24.481Z,25.51
2019-03-12T00:15:24.465Z,25.39
2019-03-12T00:16:24.459Z,25.37
2019-03-12T00:17:24.459Z,25.36
2019-03-12T00:18:24.454Z,25.29
2019-03-12T00:19:24.432Z,25.14
2019-03-12T00:20:24.417Z,25.00
2019-03-12T00:21:24.408Z,24.96
2019-03-12T00:22:24.398Z,24.92
2019-03-12T00:23:24.411Z,24.78
2019-03-12T00:24:24.374Z,24.74
2019-03-12T00:25:24.370Z,24.66
2019-03-12T00:26:24.354Z,24.59
2019-03-12T00:27:24.339Z,24.51
2019-03-12T00:28:24.337Z,24.48
2019-03-12T00:29:24.336Z,24.36
2019-03-12T00:30:24.319Z,24.36
2019-03-12T00:31:24.300Z,24.43
2019-03-12T00:32:24.295Z,24.41
2019-03-12T00:33:24.290Z,24.63
2019-03-12T00:34:24.305Z,24.77
2019-03-12T00:35:24.260Z,24.86
2019-03-12T00:36:24.252Z,25.14
2019-03-12T00:37:24.237Z,25.30
2019-03-12T00:38:24.228Z,25.41
2019-03-12T00:39:24.223Z,25.59
2019-03-12T00:40:24.224Z,25.74
2019-03-12T00:41:24.203Z,25.89
2019-03-12T00:42:24.195Z,25.91
2019-03-12T00:43:24.176Z,25.99
2019-03-12T00:44:24.165Z,26.04
2019-03-12T00:45:24.169Z,26.11
2019-03-12T00:46:26.957Z,26.10
2019-03-12T00:47:24.135Z,26.07
2019-03-12T00:48:24.125Z,26.13
2019-03-12T00:49:24.118Z,26.06
2019-03-12T00:50:24.118Z,26.11
2019-03-12T00:51:24.091Z,26.07
2019-03-12T00:52:24.086Z,26.07
2019-03-12T00:53:24.071Z,26.19
2019-03-12T00:54:24.057Z,26.08
2019-03-12T00:55:24.080Z,26.19
2019-03-12T00:56:24.040Z,26.15
2019-03-12T00:57:24.029Z,26.19
2019-03-12T00:58:24.019Z,26.26
2019-03-12T00:59:24.012Z,26.22
2019-03-12T01:00:24.000Z,26.29
2019-03-12T01:01:24.007Z,26.16
2019-03-12T01:02:23.978Z,26.07
2019-03-12T01:03:23.965Z,26.04
2019-03-12T01:04:23.954Z,26.07
2019-03-12T01:05:23.947Z,26.08
2019-03-12T01:06:23.968Z,26.04
2019-03-12T01:07:23.919Z,26.04
2019-03-12T01:08:23.912Z,26.19
2019-03-12T01:09:23.902Z,26.18
2019-03-12T01:10:23.890Z,26.19
2019-03-12T01:11:23.892Z,26.23
2019-03-12T01:12:23.889Z,26.23
2019-03-12T01:13:23.860Z,26.29
2019-03-12T01:14:23.858Z,26.27
2019-03-12T01:15:23.841Z,26.24
2019-03-12T01:16:23.832Z,26.19
2019-03-12T01:17:23.833Z,26.18
2019-03-12T01:18:23.812Z,26.30
2019-03-12T01:19:23.801Z,26.15
2019-03-12T01:20:23.787Z,26.22
2019-03-12T01:21:23.777Z,26.31
2019-03-12T01:22:23.804Z,26.34
2019-03-12T01:23:23.756Z,26.39
2019-03-12T01:24:23.755Z,26.41
2019-03-12T01:25:23.734Z,26.41
2019-03-12T01:26:23.720Z,26.37
2019-03-12T01:27:23.738Z,26.39
2019-03-12T01:28:23.700Z,26.37
2019-03-12T01:29:23.690Z,26.34
2019-03-12T01:30:23.675Z,26.30
2019-03-12T01:31:23.675Z,26.26
2019-03-12T01:32:23.659Z,26.29
2019-03-12T01:33:23.680Z,26.27
2019-03-12T01:34:23.732Z,26.34
2019-03-12T01:35:23.626Z,26.29
2019-03-12T01:36:23.697Z,26.45
2019-03-12T01:37:23.606Z,26.45
2019-03-12T01:38:23.641Z,26.44
2019-03-12T01:39:23.588Z,26.45
2019-03-12T01:40:23.577Z,26.42
2019-03-12T01:41:23.564Z,26.33
2019-03-12T01:42:23.553Z,26.44
2019-03-12T01:43:23.560Z,26.45
2019-03-12T01:44:23.539Z,26.31
2019-03-12T01:45:23.527Z,26.33
2019-03-12T01:46:23.508Z,26.44
2019-03-12T01:47:23.500Z,26.49
2019-03-12T01:48:23.522Z,26.52
2019-03-12T01:49:23.485Z,26.56
2019-03-12T01:50:23.467Z,26.52
2019-03-12T01:51:23.464Z,26.49
2019-03-12T01:52:23.452Z,26.53
2019-03-12T01:53:23.444Z,26.53
2019-03-12T01:54:23.446Z,26.48
2019-03-12T01:55:23.446Z,26.46
2019-03-12T01:56:23.450Z,26.45
2019-03-12T01:57:23.391Z,26.44
2019-03-12T01:58:23.389Z,26.45
2019-03-12T01:59:23.385Z,26.42
2019-03-12T02:00:23.368Z,26.42
2019-03-12T02:01:23.354Z,26.52
2019-03-12T02:02:23.343Z,26.52
2019-03-12T02:03:23.333Z,26.55
2019-03-12T02:04:23.344Z,26.52
2019-03-12T02:05:23.309Z,26.53
2019-03-12T02:06:23.297Z,26.52
2019-03-12T02:07:23.294Z,26.55
2019-03-12T02:08:23.279Z,26.48
2019-03-12T02:09:23.292Z,26.53
2019-03-12T02:10:23.258Z,26.44
2019-03-12T02:11:23.248Z,26.46
2019-03-12T02:12:23.236Z,26.51
2019-03-12T02:13:23.232Z,26.53
2019-03-12T02:14:23.242Z,26.56
2019-03-12T02:15:23.217Z,26.56
2019-03-12T02:16:23.195Z,26.61
2019-03-12T02:17:23.187Z,26.59
2019-03-12T02:18:23.172Z,26.64
2019-03-12T02:19:23.164Z,26.64
2019-03-12T02:20:23.167Z,26.52
2019-03-12T02:21:23.147Z,26.51
2019-03-12T02:22:23.131Z,26.46
2019-03-12T02:23:23.122Z,26.44
2019-03-12T02:24:23.111Z,26.46
2019-03-12T02:25:23.121Z,26.46
2019-03-12T02:26:23.094Z,26.59
2019-03-12T02:27:23.093Z,26.63
2019-03-12T02:28:23.068Z,26.64
2019-03-12T02:29:23.052Z,26.63
2019-03-12T02:30:23.090Z,26.66
2019-03-12T02:31:23.038Z,26.60
2019-03-12T02:32:23.030Z,26.60
2019-03-12T02:33:23.016Z,26.56
2019-03-12T02:34:23.012Z,26.51
2019-03-12T02:35:23.008Z,26.51
2019-03-12T02:36:22.987Z,26.33
2019-03-12T02:37:22.986Z,26.33
2019-03-12T02:38:22.969Z,26.24
2019-03-12T02:39:22.954Z,26.18
2019-03-12T02:40:22.974Z,26.06
2019-03-12T02:41:22.932Z,26.01
2019-03-12T02:42:22.925Z,25.93
2019-03-12T02:43:22.913Z,25.80
2019-03-12T02:44:22.908Z,25.59
2019-03-12T02:45:22.890Z,25.55
2019-03-12T02:46:22.902Z,25.44
2019-03-12T02:47:22.878Z,25.34
2019-03-12T02:48:22.866Z,25.25
2019-03-12T02:49:22.853Z,25.14
2019-03-12T02:50:22.844Z,25.18
2019-03-12T02:51:22.852Z,25.12
2019-03-12T02:52:22.822Z,25.09
2019-03-12T02:53:22.822Z,25.19
2019-03-12T02:54:22.804Z,25.26
2019-03-12T02:55:22.791Z,25.44
2019-03-12T02:56:22.802Z,25.59
2019-03-12T02:57:22.769Z,25.66
2019-03-12T02:58:22.764Z,25.88
2019-03-12T02:59:22.748Z,25.99
2019-03-12T03:00:22.742Z,26.15
2019-03-12T03:01:22.727Z,26.23
2019-03-12T03:02:22.740Z,26.48
2019-03-12T03:03:22.715Z,26.49
2019-03-12T03:04:22.697Z,26.52
2019-03-12T03:05:22.682Z,26.63
2019-03-12T03:06:22.702Z,26.60
2019-03-12T03:07:22.681Z,26.64
2019-03-12T03:08:22.655Z,26.48
2019-03-12T03:09:22.640Z,26.55
2019-03-12T03:10:23.320Z,26.42
2019-03-12T03:11:22.624Z,26.46
2019-03-12T03:12:22.644Z,26.39
2019-03-12T03:13:22.602Z,26.41
2019-03-12T03:14:22.585Z,26.36
2019-03-12T03:15:22.578Z,26.39
2019-03-12T03:16:24.222Z,26.39
2019-03-12T03:17:22.587Z,26.45
2019-03-12T03:18:22.546Z,26.41
2019-03-12T03:19:22.535Z,26.52
2019-03-12T03:20:22.529Z,26.48
2019-03-12T03:21:22.519Z,26.55
2019-03-12T03:22:22.505Z,26.49
2019-03-12T03:23:22.506Z,26.46
2019-03-12T03:24:22.491Z,26.42
2019-03-12T03:25:22.471Z,26.48
2019-03-12T03:26:22.481Z,26.42
2019-03-12T03:27:22.454Z,26.39
2019-03-12T03:28:22.494Z,26.30
2019-03-12T03:29:22.429Z,26.39
2019-03-12T03:30:22.421Z,26.48
2019-03-12T03:31:22.409Z,26.52
2019-03-12T03:32:22.399Z,26.63
2019-03-12T03:33:22.445Z,26.63
2019-03-12T03:34:27.836Z,26.55
2019-03-12T03:35:23.378Z,26.46
2019-03-12T03:36:22.364Z,26.49
2019-03-12T03:37:22.344Z,26.49
2019-03-12T03:38:22.335Z,26.42
2019-03-12T03:39:22.338Z,26.41
2019-03-12T03:40:22.310Z,26.42
2019-03-12T03:41:22.311Z,26.45
2019-03-12T03:42:22.344Z,26.46
2019-03-12T03:43:22.294Z,26.53
2019-03-12T03:44:22.288Z,26.55
2019-03-12T03:45:22.283Z,26.52
2019-03-12T03:46:22.250Z,26.60
2019-03-12T03:47:22.238Z,26.60
2019-03-12T03:48:22.240Z,26.51
2019-03-12T03:49:22.242Z,26.56
2019-03-12T03:50:22.218Z,26.49
2019-03-12T03:51:22.208Z,26.46
2019-03-12T03:52:22.237Z,26.46
2019-03-12T03:53:22.183Z,26.42
2019-03-12T03:54:22.174Z,26.42
2019-03-12T03:55:22.178Z,26.49
2019-03-12T03:56:22.155Z,26.61
2019-03-12T03:57:22.140Z,26.59
2019-03-12T03:58:22.134Z,26.60
2019-03-12T03:59:22.116Z,26.66
2019-03-12T04:00:22.127Z,26.64
2019-03-12T04:01:22.094Z,26.70
2019-03-12T04:02:22.095Z,26.64
2019-03-12T04:03:22.075Z,26.61
2019-03-12T04:04:22.074Z,26.51
2019-03-12T04:05:22.090Z,26.56
2019-03-12T04:06:22.043Z,26.52
2019-03-12T04:07:22.038Z,26.49
2019-03-12T04:08:22.020Z,26.46
2019-03-12T04:09:22.086Z,26.48
2019-03-12T04:10:22.002Z,26.61
2019-03-12T04:11:22.017Z,26.56
2019-03-12T04:12:21.982Z,26.64
2019-03-12T04:13:21.972Z,26.73
2019-03-12T04:14:21.967Z,26.66
2019-03-12T04:15:21.953Z,26.59
2019-03-12T04:16:21.962Z,26.49
2019-03-12T04:17:21.933Z,26.44
2019-03-12T04:18:21.928Z,26.39
2019-03-12T04:19:21.909Z,26.26
2019-03-12T04:20:21.920Z,26.24
2019-03-12T04:21:21.935Z,26.22
2019-03-12T04:22:21.883Z,26.08
2019-03-12T04:23:21.876Z,26.03
2019-03-12T04:24:21.870Z,26.01
2019-03-12T04:25:21.860Z,26.01
2019-03-12T04:26:21.840Z,25.88
2019-03-12T04:27:21.861Z,25.93
2019-03-12T04:28:21.826Z,26.04
2019-03-12T04:29:21.810Z,26.07
2019-03-12T04:30:21.805Z,26.08
2019-03-12T04:31:21.790Z,26.16
2019-03-12T04:32:21.797Z,26.13
2019-03-12T04:33:21.772Z,26.18
2019-03-12T04:34:21.772Z,26.29
2019-03-12T04:35:21.753Z,26.29
2019-03-12T04:36:21.876Z,26.44
2019-03-12T04:37:21.759Z,26.45
2019-03-12T04:38:21.719Z,26.52
2019-03-12T04:39:21.707Z,26.64
2019-03-12T04:40:21.701Z,26.67
2019-03-12T04:41:21.685Z,26.74
2019-03-12T04:42:21.685Z,26.74
2019-03-12T04:43:21.680Z,26.76
2019-03-12T04:44:21.656Z,26.74
2019-03-12T04:45:21.649Z,26.76
2019-03-12T04:46:21.635Z,26.82
2019-03-12T04:47:21.629Z,26.79
2019-03-12T04:48:21.631Z,26.88
2019-03-12T04:49:21.614Z,26.92
2019-03-12T04:50:21.616Z,26.92
2019-03-12T04:51:21.585Z,27.01
2019-03-12T04:52:21.573Z,27.00
2019-03-12T04:53:21.575Z,27.00
2019-03-12T04:54:21.557Z,27.05
2019-03-12T04:55:21.551Z,27.04
2019-03-12T04:56:21.537Z,26.93
2019-03-12T04:57:21.522Z,26.92
2019-03-12T04:58:21.525Z,26.81
2019-03-12T04:59:21.591Z,26.79
2019-03-12T05:00:21.493Z,26.64
2019-03-12T05:01:21.485Z,26.49
2019-03-12T05:02:21.473Z,26.45
2019-03-12T05:03:21.484Z,26.34
2019-03-12T05:04:21.457Z,26.18
2019-03-12T05:05:21.443Z,25.99
2019-03-12T05:06:21.431Z,25.99
2019-03-12T05:07:21.423Z,25.88
2019-03-12T05:08:21.427Z,25.78
2019-03-12T05:09:21.407Z,25.56
2019-03-12T05:10:21.397Z,25.52
2019-03-12T05:11:21.381Z,25.51
2019-03-12T05:12:21.373Z,25.34
2019-03-12T05:13:21.387Z,25.33
2019-03-12T05:14:21.359Z,25.30
2019-03-12T05:15:21.344Z,25.34
2019-03-12T05:16:21.333Z,25.34
2019-03-12T05:17:21.320Z,25.41
2019-03-12T05:18:21.343Z,25.62
2019-03-12T05:19:21.303Z,25.81
2019-03-12T05:20:21.295Z,25.92
2019-03-12T05:21:21.284Z,26.10
2019-03-12T05:22:21.277Z,26.23
2019-03-12T05:23:21.291Z,26.39
2019-03-12T05:24:21.249Z,26.48
2019-03-12T05:25:21.245Z,26.42
2019-03-12T05:26:21.231Z,26.52
2019-03-12T05:27:21.230Z,26.55
2019-03-12T05:28:21.207Z,26.60
2019-03-12T05:29:21.213Z,26.61
2019-03-12T05:30:21.193Z,26.60
2019-03-12T05:31:21.181Z,26.67
2019-03-12T05:32:21.168Z,26.63
2019-03-12T05:33:21.157Z,26.68
2019-03-12T05:34:23.194Z,26.67
2019-03-12T05:35:21.150Z,26.68
2019-03-12T05:36:21.128Z,26.71
2019-03-12T05:37:21.128Z,26.76
2019-03-12T05:38:21.109Z,26.71
2019-03-12T05:39:21.117Z,26.67
2019-03-12T05:40:21.101Z,26.66
2019-03-12T05:41:21.081Z,26.70
2019-03-12T05:42:21.069Z,26.67
2019-03-12T05:43:21.072Z,26.71
2019-03-12T05:44:21.075Z,26.73
2019-03-12T05:45:21.053Z,26.79
2019-03-12T05:46:21.026Z,26.74
2019-03-12T05:47:21.017Z,26.82
2019-03-12T05:48:21.004Z,26.67
2019-03-12T05:49:20.998Z,26.70
2019-03-12T05:50:20.998Z,26.66
2019-03-12T05:51:20.981Z,26.68
2019-03-12T05:52:20.967Z,26.78
2019-03-12T05:53:20.961Z,26.74
2019-03-12T05:54:20.955Z,26.74
2019-03-12T05:55:20.973Z,26.83
2019-03-12T05:56:20.928Z,26.83
2019-03-12T05:57:20.923Z,26.76
2019-03-12T05:58:20.905Z,26.66
2019-03-12T05:59:20.903Z,26.45
2019-03-12T06:00:20.904Z,26.36
2019-03-12T06:01:20.879Z,26.22
2019-03-12T06:02:20.878Z,25.96
2019-03-12T06:03:20.854Z,25.89
2019-03-12T06:04:20.848Z,25.83
2019-03-12T06:05:20.854Z,25.81
2019-03-12T06:06:20.829Z,25.74
2019-03-12T06:07:20.818Z,25.61
2019-03-12T06:08:20.808Z,25.44
2019-03-12T06:09:29.761Z,25.34
2019-03-12T06:10:21.802Z,25.24
2019-03-12T06:11:20.781Z,25.01
2019-03-12T06:12:20.770Z,24.81
2019-03-12T06:13:20.752Z,24.55
2019-03-12T06:14:20.742Z,24.50
2019-03-12T06:15:20.766Z,24.24
2019-03-12T06:16:20.721Z,24.18
2019-03-12T06:17:20.723Z,24.09
2019-03-12T06:18:20.762Z,24.04
2019-03-12T06:19:20.691Z,23.89
2019-03-12T06:20:20.684Z,23.91
2019-03-12T06:21:20.687Z,23.82
2019-03-12T06:22:20.666Z,23.79
2019-03-12T06:23:20.656Z,23.70
2019-03-12T06:24:20.640Z,23.69
2019-03-12T06:25:20.632Z,23.81
2019-03-12T06:26:20.641Z,23.77
2019-03-12T06:27:20.609Z,23.92
2019-03-12T06:28:20.601Z,23.84
2019-03-12T06:29:20.586Z,23.95
2019-03-12T06:30:20.580Z,24.07
2019-03-12T06:31:20.596Z,24.01
2019-03-12T06:32:20.569Z,24.14
2019-03-12T06:33:24.178Z,24.07
2019-03-12T06:34:20.534Z,24.01
2019-03-12T06:35:20.527Z,23.92
2019-03-12T06:36:20.514Z,23.95
2019-03-12T06:37:20.525Z,23.94
2019-03-12T06:38:20.502Z,23.84
2019-03-12T06:39:20.484Z,23.73
2019-03-12T06:40:20.470Z,23.51
2019-03-12T06:41:20.460Z,23.33
2019-03-12T06:42:20.472Z,23.18
2019-03-12T06:43:20.441Z,23.02
2019-03-12T06:44:20.429Z,22.89
2019-03-12T06:45:20.415Z,22.80
2019-03-12T06:46:20.404Z,22.71
2019-03-12T06:47:20.411Z,22.59
2019-03-12T06:48:20.386Z,22.47
2019-03-12T06:49:20.374Z,22.46
2019-03-12T06:50:20.365Z,22.40
2019-03-12T06:51:20.353Z,22.36
2019-03-12T06:52:20.364Z,22.33
2019-03-12T06:53:20.346Z,22.25
2019-03-12T06:54:20.320Z,22.18
2019-03-12T06:55:20.312Z,22.04
2019-03-12T06:56:20.303Z,22.04
2019-03-12T06:57:20.318Z,22.00
2019-03-12T06:58:20.283Z,21.97
2019-03-12T06:59:20.266Z,21.92
2019-03-12T07:00:20.262Z,21.92
2019-03-12T07:01:20.251Z,22.06
2019-03-12T07:02:20.239Z,22.16
2019-03-12T07:03:20.241Z,22.25
2019-03-12T07:04:20.215Z,22.47
2019-03-12T07:05:20.207Z,22.46
2019-03-12T07:06:20.197Z,22.59
2019-03-12T07:07:20.191Z,22.58
2019-03-12T07:08:20.204Z,22.74
2019-03-12T07:09:20.170Z,22.80
2019-03-12T07:10:20.154Z,22.95
2019-03-12T07:11:20.183Z,22.93
2019-03-12T07:12:20.147Z,23.13
2019-03-12T07:13:20.123Z,23.23
2019-03-12T07:14:22.579Z,23.21
2019-03-12T07:15:20.103Z,23.37
2019-03-12T07:16:20.091Z,23.25
2019-03-12T07:17:20.082Z,23.36
2019-03-12T07:18:20.069Z,23.47
2019-03-12T07:19:20.160Z,23.45
2019-03-12T07:20:20.050Z,23.56
2019-03-12T07:21:20.038Z,23.64
2019-03-12T07:22:20.029Z,23.73
2019-03-12T07:23:20.020Z,23.73
2019-03-12T07:24:20.038Z,23.79
2019-03-12T07:25:20.010Z,23.84
2019-03-12T07:26:19.991Z,23.95
2019-03-12T07:27:19.975Z,23.88
2019-03-12T07:28:19.970Z,23.88
2019-03-12T07:29:19.954Z,23.86
2019-03-12T07:30:19.963Z,23.92
2019-03-12T07:31:20.056Z,23.95
2019-03-12T07:32:19.929Z,24.01
2019-03-12T07:33:19.915Z,23.91
2019-03-12T07:34:19.901Z,23.99
2019-03-12T07:35:22.631Z,23.96
2019-03-12T07:36:19.901Z,23.96
2019-03-12T07:37:19.869Z,23.96
2019-03-12T07:38:19.861Z,23.95
2019-03-12T07:39:19.847Z,23.91
2019-03-12T07:40:20.363Z,23.95
2019-03-12T07:41:31.341Z,23.94
2019-03-12T07:42:20.822Z,23.89
2019-03-12T07:43:19.816Z,23.96
2019-03-12T07:44:19.803Z,23.92
2019-03-12T07:45:19.810Z,23.88
2019-03-12T07:46:19.777Z,23.94
2019-03-12T07:47:19.765Z,23.89
2019-03-12T07:48:19.753Z,23.89
2019-03-12T07:49:19.744Z,23.92
2019-03-12T07:50:19.735Z,23.95
2019-03-12T07:51:19.744Z,24.04
2019-03-12T07:52:19.723Z,24.01
2019-03-12T07:53:19.818Z,24.07
2019-03-12T07:54:19.690Z,23.92
2019-03-12T07:55:19.697Z,23.88
2019-03-12T07:56:19.682Z,23.94
2019-03-12T07:57:19.659Z,23.85
2019-03-12T07:58:19.653Z,23.91
2019-03-12T07:59:19.640Z,23.91
2019-03-12T08:00:19.629Z,23.99
2019-03-12T08:01:19.639Z,23.91
2019-03-12T08:02:19.617Z,23.95
2019-03-12T08:03:19.597Z,23.92
2019-03-12T08:04:19.587Z,23.92
2019-03-12T08:05:19.583Z,23.99
2019-03-12T08:06:19.606Z,23.91
2019-03-12T08:07:19.551Z,24.06
2019-03-12T08:08:19.541Z,24.07
2019-03-12T08:09:19.535Z,24.06
2019-03-12T08:10:19.521Z,24.04
2019-03-12T08:11:19.545Z,24.00
2019-03-12T08:12:19.503Z,23.94
2019-03-12T08:13:19.494Z,24.00
2019-03-12T08:14:19.480Z,23.99
2019-03-12T08:15:23.342Z,24.01
2019-03-12T08:16:19.471Z,24.07
2019-03-12T08:17:19.472Z,24.04
2019-03-12T08:18:19.439Z,24.04
2019-03-12T08:19:19.428Z,24.06
2019-03-12T08:20:19.417Z,23.96
2019-03-12T08:21:22.494Z,23.94
2019-03-12T08:22:19.405Z,23.95
2019-03-12T08:23:19.382Z,23.92
2019-03-12T08:24:19.374Z,24.00
2019-03-12T08:25:19.373Z,24.01
2019-03-12T08:26:19.359Z,24.04
2019-03-12T08:27:19.369Z,24.06
2019-03-12T08:28:19.335Z,24.01
2019-03-12T08:29:19.319Z,23.95
2019-03-12T08:30:19.323Z,23.95
2019-03-12T08:31:19.299Z,23.88
2019-03-12T08:32:19.315Z,23.89
2019-03-12T08:33:19.276Z,23.91
2019-03-12T08:34:19.269Z,23.92
2019-03-12T08:35:19.261Z,23.96
2019-03-12T08:36:19.243Z,24.03
2019-03-12T08:37:19.258Z,23.99
2019-03-12T08:38:19.224Z,24.03
2019-03-12T08:39:19.218Z,24.01
2019-03-12T08:40:19.206Z,24.01
2019-03-12T08:41:19.192Z,24.06
2019-03-12T08:42:19.199Z,24.07
2019-03-12T08:43:19.174Z,24.13
2019-03-12T08:44:19.174Z,24.04
2019-03-12T08:45:19.159Z,24.11
2019-03-12T08:46:22.361Z,24.04
2019-03-12T08:47:19.165Z,24.00
2019-03-12T08:48:19.119Z,23.96
2019-03-12T08:49:19.111Z,23.92
2019-03-12T08:50:19.101Z,23.92
2019-03-12T08:51:19.092Z,23.77
2019-03-12T08:52:19.102Z,23.56
2019-03-12T08:53:19.067Z,23.44
2019-03-12T08:54:21.345Z,23.42
2019-03-12T08:55:19.044Z,23.29
2019-03-12T08:56:19.061Z,23.07
2019-03-12T08:57:19.025Z,23.02
2019-03-12T08:58:19.067Z,23.01
2019-03-12T08:59:19.005Z,22.81
2019-03-12T09:00:18.992Z,22.71
2019-03-12T09:01:19.057Z,22.68
2019-03-12T09:02:18.969Z,22.61
2019-03-12T09:03:18.977Z,22.61
2019-03-12T09:04:18.952Z,22.61
2019-03-12T09:05:18.938Z,22.65
2019-03-12T09:06:18.944Z,22.86
2019-03-12T09:07:18.917Z,22.98
2019-03-12T09:08:18.934Z,23.23
2019-03-12T09:09:18.899Z,23.37
2019-03-12T09:10:18.892Z,23.63
2019-03-12T09:11:18.880Z,23.73
2019-03-12T09:12:18.867Z,23.88
2019-03-12T09:13:18.875Z,23.95
2019-03-12T09:14:18.846Z,24.03
2019-03-12T09:15:18.834Z,24.10
2019-03-12T09:16:18.825Z,24.16
2019-03-12T09:17:18.813Z,24.24
2019-03-12T09:18:18.819Z,24.26
2019-03-12T09:19:18.795Z,24.32
2019-03-12T09:20:18.823Z,24.29
2019-03-12T09:21:18.776Z,24.46
2019-03-12T09:22:18.758Z,24.50
2019-03-12T09:23:18.765Z,24.48
2019-03-12T09:24:18.741Z,24.48
2019-03-12T09:25:18.727Z,24.46
2019-03-12T09:26:18.727Z,24.46
2019-03-12T09:27:18.708Z,24.47
2019-03-12T09:28:18.709Z,24.43
2019-03-12T09:29:18.685Z,24.41
2019-03-12T09:30:18.684Z,24.50
2019-03-12T09:31:18.674Z,24.51
2019-03-12T09:32:18.658Z,24.65
2019-03-12T09:33:18.664Z,24.66
2019-03-12T09:34:18.634Z,24.63
2019-03-12T09:35:18.637Z,24.50
2019-03-12T09:36:18.614Z,24.48
2019-03-12T09:37:18.603Z,24.48
2019-03-12T09:38:18.615Z,24.48
2019-03-12T09:39:18.585Z,24.48
2019-03-12T09:40:18.578Z,24.50
2019-03-12T09:41:18.568Z,24.58
2019-03-12T09:42:18.568Z,24.59
2019-03-12T09:43:18.541Z,24.68
2019-03-12T09:44:18.547Z,24.58
2019-03-12T09:45:18.520Z,24.66
2019-03-12T09:46:18.514Z,24.63
2019-03-12T09:47:18.500Z,24.58
2019-03-12T09:48:18.488Z,24.50
2019-03-12T09:49:18.505Z,24.43
2019-03-12T09:50:18.466Z,24.46
2019-03-12T09:51:18.455Z,24.40
2019-03-12T09:52:18.481Z,24.46
2019-03-12T09:53:18.437Z,24.47
2019-03-12T09:54:18.446Z,24.58
2019-03-12T09:55:18.410Z,24.53
2019-03-12T09:56:18.403Z,24.62
2019-03-12T09:57:18.391Z,24.63
2019-03-12T09:58:18.382Z,24.65
2019-03-12T09:59:18.393Z,24.63
2019-03-12T10:00:18.363Z,24.65
2019-03-12T10:01:18.352Z,24.66
2019-03-12T10:02:18.341Z,24.58
2019-03-12T10:03:18.328Z,24.53
2019-03-12T10:04:18.461Z,24.50
2019-03-12T10:05:18.317Z,24.44
2019-03-12T10:06:18.297Z,24.51
2019-03-12T10:07:18.288Z,24.46
2019-03-12T10:08:18.282Z,24.47
2019-03-12T10:09:18.275Z,24.51
2019-03-12T10:10:18.250Z,24.55
2019-03-12T10:11:18.246Z,24.55
2019-03-12T10:12:18.239Z,24.61
2019-03-12T10:13:18.231Z,24.61
2019-03-12T10:14:18.227Z,24.65
2019-03-12T10:15:18.209Z,24.59
2019-03-12T10:16:18.195Z,24.55
2019-03-12T10:17:18.182Z,24.51
2019-03-12T10:18:18.170Z,24.46
2019-03-12T10:19:18.174Z,24.47
2019-03-12T10:20:18.150Z,24.41
2019-03-12T10:21:19.340Z,24.34
2019-03-12T10:22:18.154Z,24.36
2019-03-12T10:23:18.121Z,24.37
2019-03-12T10:24:18.141Z,24.46
2019-03-12T10:25:18.101Z,24.50
2019-03-12T10:26:18.088Z,24.51
2019-03-12T10:27:18.074Z,24.66
2019-03-12T10:28:18.072Z,24.68
2019-03-12T10:29:18.068Z,24.63
2019-03-12T10:30:18.071Z,24.55
2019-03-12T10:31:18.055Z,24.56
2019-03-12T10:32:18.024Z,24.48
2019-03-12T10:33:18.015Z,24.51
2019-03-12T10:34:28.902Z,24.55
2019-03-12T10:35:19.003Z,24.55
2019-03-12T10:36:18.123Z,24.53
2019-03-12T10:37:17.972Z,24.55
2019-03-12T10:38:17.965Z,24.63
2019-03-12T10:39:17.947Z,24.71
2019-03-12T10:40:17.958Z,24.71
2019-03-12T10:41:17.930Z,24.65
2019-03-12T10:42:17.915Z,24.78
2019-03-12T10:43:18.852Z,24.77
2019-03-12T10:44:17.894Z,24.74
2019-03-12T10:45:17.901Z,24.69
2019-03-12T10:46:17.876Z,24.66
2019-03-12T10:47:17.862Z,24.61
2019-03-12T10:48:17.857Z,24.53
2019-03-12T10:49:17.949Z,24.55
2019-03-12T10:50:17.848Z,24.50
2019-03-12T10:51:17.822Z,24.58
2019-03-12T10:52:17.816Z,24.58
2019-03-12T10:53:17.810Z,24.51
2019-03-12T10:54:17.788Z,24.51
2019-03-12T10:55:17.806Z,24.55
2019-03-12T10:56:17.768Z,24.59
2019-03-12T10:57:17.772Z,24.65
2019-03-12T10:58:17.748Z,24.63
2019-03-12T10:59:17.750Z,24.58
2019-03-12T11:00:17.743Z,24.62
2019-03-12T11:01:17.798Z,24.56
2019-03-12T11:02:17.702Z,24.53
2019-03-12T11:03:17.697Z,24.53
2019-03-12T11:04:17.680Z,24.55
2019-03-12T11:05:17.769Z,24.43
2019-03-12T11:06:17.670Z,24.51
2019-03-12T11:07:17.656Z,24.56
2019-03-12T11:08:17.648Z,24.63
2019-03-12T11:09:17.631Z,24.69
2019-03-12T11:10:17.660Z,24.77
2019-03-12T11:11:17.610Z,24.74
2019-03-12T11:12:17.623Z,24.79
2019-03-12T11:13:17.603Z,24.82
2019-03-12T11:14:17.577Z,24.77
2019-03-12T11:15:17.569Z,24.71
2019-03-12T11:16:17.579Z,24.65
2019-03-12T11:17:17.549Z,24.65
2019-03-12T11:18:17.573Z,24.51
2019-03-12T11:19:17.527Z,24.38
2019-03-12T11:20:17.516Z,24.36
2019-03-12T11:21:17.527Z,24.29
2019-03-12T11:22:17.495Z,24.18
2019-03-12T11:23:17.500Z,24.06
2019-03-12T11:24:17.477Z,23.89
2019-03-12T11:25:27.200Z,23.89
2019-03-12T11:26:18.463Z,23.86
2019-03-12T11:27:17.441Z,23.73
2019-03-12T11:28:17.432Z,23.63
2019-03-12T11:29:17.420Z,23.55
2019-03-12T11:30:17.411Z,23.55
2019-03-12T11:31:17.415Z,23.51
2019-03-12T11:32:17.389Z,23.54
2019-03-12T11:33:17.381Z,23.62
2019-03-12T11:34:17.374Z,23.70
2019-03-12T11:35:17.354Z,23.71
2019-03-12T11:36:17.376Z,23.82
2019-03-12T11:37:17.345Z,23.92
2019-03-12T11:38:17.325Z,24.04
2019-03-12T11:39:17.318Z,24.07
2019-03-12T11:40:17.380Z,24.24
2019-03-12T11:41:17.304Z,24.41
2019-03-12T11:42:17.291Z,24.46
2019-03-12T11:43:17.283Z,24.55
2019-03-12T11:44:17.265Z,24.56
2019-03-12T11:45:19.432Z,24.66
2019-03-12T11:46:17.271Z,24.66
2019-03-12T11:47:17.241Z,24.78
2019-03-12T11:48:17.250Z,24.69
2019-03-12T11:49:17.221Z,24.61
2019-03-12T11:50:17.209Z,24.62
2019-03-12T11:51:17.235Z,24.66
2019-03-12T11:52:17.192Z,24.65
2019-03-12T11:53:17.196Z,24.61
2019-03-12T11:54:17.165Z,24.59
2019-03-12T11:55:17.390Z,24.62
2019-03-12T11:56:17.154Z,24.61
2019-03-12T11:57:17.132Z,24.71
2019-03-12T11:58:17.409Z,24.71
2019-03-12T11:59:17.105Z,24.68
2019-03-12T12:00:19.434Z,24.65
2019-03-12T12:01:17.114Z,24.63
2019-03-12T12:02:17.070Z,24.63
2019-03-12T12:03:17.062Z,24.68
2019-03-12T12:04:17.053Z,24.61
2019-03-12T12:05:17.056Z,24.62
2019-03-12T12:06:17.031Z,24.59
2019-03-12T12:07:17.043Z,24.55
2019-03-12T12:08:17.090Z,24.55
2019-03-12T12:09:17.019Z,24.51
2019-03-12T12:10:16.985Z,24.50
2019-03-12T12:11:16.977Z,24.61
2019-03-12T12:12:16.997Z,24.68
2019-03-12T12:13:16.955Z,24.63
2019-03-12T12:14:16.953Z,24.71
2019-03-12T12:15:16.936Z,24.66
2019-03-12T12:16:16.927Z,24.68
2019-03-12T12:17:16.930Z,24.62
2019-03-12T12:18:16.905Z,24.62
2019-03-12T12:19:16.894Z,24.68
2019-03-12T12:20:28.926Z,24.66
2019-03-12T12:21:17.871Z,24.63
2019-03-12T12:22:16.876Z,24.66
2019-03-12T12:23:16.852Z,24.59
2019-03-12T12:24:16.842Z,24.51
2019-03-12T12:25:16.826Z,24.69
2019-03-12T12:26:16.823Z,24.62
2019-03-12T12:27:16.826Z,24.68
2019-03-12T12:28:16.800Z,24.68
2019-03-12T12:29:16.790Z,24.71
2019-03-12T12:30:16.773Z,24.61
2019-03-12T12:31:16.768Z,24.69
2019-03-12T12:32:16.779Z,24.68
2019-03-12T12:33:16.749Z,24.74
2019-03-12T12:34:16.737Z,24.77
2019-03-12T12:35:16.728Z,24.77
2019-03-12T12:36:16.710Z,24.61
2019-03-12T12:37:16.712Z,24.58
2019-03-12T12:38:16.693Z,24.62
2019-03-12T12:39:16.694Z,24.46
2019-03-12T12:40:16.674Z,24.55
2019-03-12T12:41:16.661Z,24.56
2019-03-12T12:42:16.673Z,24.58
2019-03-12T12:43:16.640Z,24.56
2019-03-12T12:44:16.630Z,24.66
2019-03-12T12:45:16.622Z,24.61
2019-03-12T12:46:16.606Z,24.71
2019-03-12T12:47:16.627Z,24.68
2019-03-12T12:48:16.582Z,24.69
2019-03-12T12:49:16.576Z,24.69
2019-03-12T12:50:16.571Z,24.68
2019-03-12T12:51:16.557Z,24.66
2019-03-12T12:52:16.559Z,24.55